createdAt,value
2018-01-02T04:36:52.007Z,99176.47
2018-01-02T04:39:21.326Z,99178.91
2018-01-02T04:41:50.534Z,99186.28
2018-01-02T04:44:19.706Z,99189.07
2018-01-02T04:46:48.904Z,99201.58
2018-01-02T04:49:18.098Z,99203.72
2018-01-02T04:51:47.481Z,99212.53
2018-01-02T04:54:17.418Z,99209.77
2018-01-02T04:56:46.639Z,99210.01
2018-01-02T04:59:16.607Z,99218.19
2018-01-02T05:01:45.800Z,99206.36
2018-01-02T05:04:15.026Z,99219.06
2018-01-02T05:06:44.203Z,99220.09
2018-01-02T05:09:13.385Z,99227.16
2018-01-02T05:11:42.646Z,99235.88
2018-01-02T05:14:11.859Z,99237.47
2018-01-02T05:16:41.095Z,99238.87
2018-01-02T05:19:10.290Z,99242.05
2018-01-02T05:21:39.486Z,99251.02
2018-01-02T05:24:08.688Z,99245.21
2018-01-02T05:26:37.893Z,99262.83
2018-01-02T05:29:07.131Z,99271.25
2018-01-02T05:31:36.320Z,99279.08
2018-01-02T05:34:05.526Z,99277.17
2018-01-02T05:36:34.753Z,99277.81
2018-01-02T05:39:04.757Z,99285.12
2018-01-02T05:41:33.986Z,99283.85
2018-01-02T05:44:03.199Z,99285.95
2018-01-02T05:46:32.406Z,99298.19
2018-01-02T05:49:01.594Z,99302.02
2018-01-02T05:51:30.779Z,99307.32
2018-01-02T05:53:59.979Z,99311.77
2018-01-02T05:56:29.213Z,99320.64
2018-01-02T05:58:59.938Z,99323.58
2018-01-02T06:01:29.194Z,99322.02
2018-01-02T06:03:58.411Z,99327.06
2018-01-02T06:06:27.718Z,99325.66
2018-01-02T06:08:57.044Z,99331.45
2018-01-02T06:11:26.238Z,99335.50
2018-01-02T06:13:55.505Z,99341.06
2018-01-02T06:16:24.686Z,99350.43
2018-01-02T06:18:53.967Z,99354.07
2018-01-02T06:21:23.919Z,99359.56
2018-01-02T06:23:53.200Z,99365.86
2018-01-02T06:26:22.410Z,99360.91
2018-01-02T06:28:51.598Z,99374.73
2018-01-02T06:31:20.804Z,99375.19
2018-01-02T06:33:49.983Z,99381.16
2018-01-02T06:36:19.231Z,99388.44
2018-01-02T06:38:48.446Z,99391.39
2018-01-02T06:41:17.879Z,99392.02
2018-01-02T06:43:47.071Z,99402.09
2018-01-02T06:46:17.050Z,99409.23
2018-01-02T06:48:46.240Z,99406.53
2018-01-02T06:51:15.437Z,99405.61
2018-01-02T06:53:44.678Z,99407.96
2018-01-02T06:56:13.974Z,99420.73
2018-01-02T06:58:43.198Z,99425.26
2018-01-02T07:01:12.398Z,99419.70
2018-01-02T07:03:41.690Z,99426.69
2018-01-02T07:06:10.899Z,99434.64
2018-01-02T07:08:40.107Z,99444.44
2018-01-02T07:11:09.302Z,99444.83
2018-01-02T07:13:38.489Z,99445.54
2018-01-02T07:16:07.698Z,99446.97
2018-01-02T07:18:36.979Z,99451.63
2018-01-02T07:21:06.195Z,99450.91
2018-01-02T07:23:35.482Z,99454.51
2018-01-02T07:26:04.661Z,99462.44
2018-01-02T07:28:33.866Z,99467.89
2018-01-02T07:31:03.058Z,99474.83
2018-01-02T07:33:32.280Z,99478.84
2018-01-02T07:36:01.456Z,99483.16
2018-01-02T07:38:30.653Z,99485.03
2018-01-02T07:40:59.932Z,99485.83
2018-01-02T07:43:29.174Z,99494.23
2018-01-02T07:45:58.357Z,99502.28
2018-01-02T07:48:27.554Z,99501.17
2018-01-02T07:50:56.809Z,99505.22
2018-01-02T07:53:25.975Z,99510.30
2018-01-02T07:55:55.177Z,99518.71
2018-01-02T07:58:24.393Z,99520.22
2018-01-02T08:00:53.598Z,99525.70
2018-01-02T08:03:22.848Z,99523.87
2018-01-02T08:05:52.062Z,99527.60
2018-01-02T08:08:21.276Z,99530.86
2018-01-02T08:10:50.491Z,99541.13
2018-01-02T08:13:20.474Z,99542.55
2018-01-02T08:15:49.687Z,99546.92
2018-01-02T08:18:18.888Z,99553.30
2018-01-02T08:20:48.070Z,99561.31
2018-01-02T08:23:17.270Z,99563.72
2018-01-02T08:25:46.497Z,99567.78
2018-01-02T08:28:16.459Z,99578.25
2018-01-02T08:30:45.664Z,99583.17
2018-01-02T08:33:14.889Z,99588.09
2018-01-02T08:35:44.106Z,99592.04
2018-01-02T08:38:13.489Z,99592.86
2018-01-02T08:40:42.687Z,99595.56
2018-01-02T08:43:11.907Z,99605.48
2018-01-02T08:45:41.961Z,99602.99
2018-01-02T08:48:11.247Z,99604.73
2018-01-02T08:50:40.451Z,99607.72
2018-01-02T08:53:09.660Z,99613.44
2018-01-02T08:55:38.862Z,99619.63
2018-01-02T08:58:08.090Z,99625.50
2018-01-02T09:00:38.075Z,99627.33
2018-01-02T09:03:07.335Z,99633.63
2018-01-02T09:05:36.527Z,99638.55
2018-01-02T09:08:05.895Z,99643.48
2018-01-02T09:10:35.100Z,99649.98
2018-01-02T09:13:20.463Z,99657.13
2018-01-02T09:15:49.655Z,99650.02
2018-01-02T09:18:18.861Z,99666.77
2018-01-02T09:20:48.061Z,99672.09
2018-01-02T09:23:17.254Z,99678.76
2018-01-02T09:25:46.442Z,99680.22
2018-01-02T09:28:15.662Z,99686.48
2018-01-02T09:30:44.837Z,99681.65
2018-01-02T09:33:14.034Z,99692.75
2018-01-02T09:35:43.226Z,99691.72
2018-01-02T09:38:12.422Z,99700.41
2018-01-02T09:40:41.625Z,99705.72
2018-01-02T09:43:10.846Z,99710.89
2018-01-02T09:45:40.226Z,99701.13
2018-01-02T09:48:09.464Z,99710.01
2018-01-02T09:50:39.491Z,99716.71
2018-01-02T09:53:08.663Z,99716.23
2018-01-02T09:55:37.859Z,99728.13
2018-01-02T09:58:07.982Z,99720.42
2018-01-02T10:00:38.031Z,99732.61
2018-01-02T10:03:07.220Z,99732.06
2018-01-02T10:05:36.424Z,99738.34
2018-01-02T10:08:05.760Z,99741.41
2018-01-02T10:10:34.949Z,99740.53
2018-01-02T10:13:04.192Z,99746.41
2018-01-02T10:15:33.472Z,99744.35
2018-01-02T10:18:02.850Z,99749.16
2018-01-02T10:20:32.059Z,99748.84
2018-01-02T10:23:01.273Z,99759.44
2018-01-02T10:25:30.496Z,99759.83
2018-01-02T10:28:00.472Z,99756.47
2018-01-02T10:30:29.698Z,99757.07
2018-01-02T10:32:59.077Z,99760.49
2018-01-02T10:35:28.325Z,99754.23
2018-01-02T10:37:57.540Z,99747.77
2018-01-02T10:40:26.834Z,99749.11
2018-01-02T10:42:56.023Z,99757.05
2018-01-02T10:45:25.253Z,99752.96
2018-01-02T10:47:54.446Z,99764.16
2018-01-02T10:50:23.686Z,99760.91
2018-01-02T10:52:53.715Z,99760.91
2018-01-02T10:55:24.467Z,99756.55
2018-01-02T10:57:53.654Z,99763.36
2018-01-02T11:00:22.856Z,99768.25
2018-01-02T11:02:52.027Z,99762.02
2018-01-02T11:05:21.997Z,99752.65
2018-01-02T11:07:51.207Z,99758.22
2018-01-02T11:10:20.434Z,99755.84
2018-01-02T11:12:54.174Z,99762.75
2018-01-02T11:15:23.391Z,99770.17
2018-01-02T11:17:52.596Z,99778.12
2018-01-02T11:20:21.820Z,99783.20
2018-01-02T11:22:51.043Z,99790.20
2018-01-02T11:25:21.021Z,99781.78
2018-01-02T11:27:50.250Z,99783.29
2018-01-02T11:30:20.214Z,99787.98
2018-01-02T11:32:49.457Z,99791.31
2018-01-02T11:35:19.448Z,99787.78
2018-01-02T11:37:48.652Z,99793.81
2018-01-02T11:40:17.903Z,99793.34
2018-01-02T11:42:47.850Z,99788.34
2018-01-02T11:45:17.065Z,99784.17
2018-01-02T11:47:46.274Z,99783.77
2018-01-02T11:50:15.506Z,99779.36
2018-01-02T11:52:44.700Z,99787.30
2018-01-02T11:55:13.893Z,99783.18
2018-01-02T11:57:43.083Z,99772.25
2018-01-02T12:00:12.283Z,99779.80
2018-01-02T12:02:41.469Z,99779.41
2018-01-02T12:05:10.703Z,99772.48
2018-01-02T12:07:39.898Z,99772.73
2018-01-02T12:10:09.251Z,99761.88
2018-01-02T12:12:38.443Z,99768.16
2018-01-02T12:15:09.286Z,99764.59
2018-01-02T12:17:39.420Z,99769.75
2018-01-02T12:20:09.430Z,99771.97
2018-01-02T12:22:39.434Z,99772.25
2018-01-02T12:25:08.654Z,99768.20
2018-01-02T12:27:37.851Z,99759.30
2018-01-02T12:30:07.897Z,99759.06
2018-01-02T12:32:37.070Z,99750.08
2018-01-02T12:35:06.326Z,99742.37
2018-01-02T12:37:35.544Z,99746.90
2018-01-02T12:40:04.919Z,99740.54
2018-01-02T12:42:34.202Z,99732.12
2018-01-02T12:45:03.502Z,99739.30
2018-01-02T12:47:32.743Z,99733.08
2018-01-02T12:50:02.718Z,99731.92
2018-01-02T12:52:31.942Z,99741.47
2018-01-02T12:55:01.274Z,99732.33
2018-01-02T12:57:30.478Z,99737.77
2018-01-02T12:59:59.680Z,99734.16
2018-01-02T13:02:28.993Z,99742.14
2018-01-02T13:04:58.384Z,99738.88
2018-01-02T13:07:27.617Z,99737.77
2018-01-02T13:09:56.847Z,99748.66
2018-01-02T13:12:26.836Z,99748.93
2018-01-02T13:14:56.046Z,99752.59
2018-01-02T13:17:25.269Z,99745.59
2018-01-02T13:19:55.335Z,99742.38
2018-01-02T13:22:24.563Z,99744.88
2018-01-02T13:24:53.793Z,99742.58
2018-01-02T13:27:22.993Z,99747.18
2018-01-02T13:29:52.220Z,99748.77
2018-01-02T13:32:21.468Z,99745.88
2018-01-02T13:34:50.701Z,99754.73
2018-01-02T13:37:19.916Z,99757.98
2018-01-02T13:39:49.129Z,99762.68
2018-01-02T13:42:18.355Z,99762.80
2018-01-02T13:44:48.358Z,99764.63
2018-01-02T13:47:17.588Z,99760.45
2018-01-02T13:49:46.781Z,99766.49
2018-01-02T13:52:15.987Z,99766.17
2018-01-02T13:54:45.958Z,99769.62
2018-01-02T13:57:15.144Z,99777.25
2018-01-02T13:59:44.468Z,99775.55
2018-01-02T14:02:13.730Z,99780.63
2018-01-02T14:04:43.215Z,99767.92
2018-01-02T14:07:12.601Z,99763.03
2018-01-02T14:09:41.957Z,99752.71
2018-01-02T14:12:11.166Z,99750.36
2018-01-02T14:14:40.422Z,99749.65
2018-01-02T14:17:09.720Z,99748.81
2018-01-02T14:19:38.919Z,99743.81
2018-01-02T14:22:08.224Z,99743.26
2018-01-02T14:24:37.424Z,99743.80
2018-01-02T14:27:06.630Z,99744.96
2018-01-02T14:29:35.813Z,99743.84
2018-01-02T14:32:05.017Z,99737.49
2018-01-02T14:34:35.068Z,99734.72
2018-01-02T14:37:04.247Z,99736.45
2018-01-02T14:39:33.505Z,99735.98
2018-01-02T14:42:03.551Z,99738.37
2018-01-02T14:44:32.741Z,99737.53
2018-01-02T14:47:01.934Z,99720.94
2018-01-02T14:49:31.155Z,99720.05
2018-01-02T14:52:01.953Z,99719.19
2018-01-02T14:54:31.157Z,99708.55
2018-01-02T14:57:00.374Z,99720.14
2018-01-02T14:59:29.597Z,99702.11
2018-01-02T15:01:58.806Z,99698.77
2018-01-02T15:04:28.770Z,99698.34
2018-01-02T15:06:58.210Z,99702.19
2018-01-02T15:09:27.434Z,99701.79
2018-01-02T15:11:57.438Z,99695.56
2018-01-02T15:14:27.410Z,99687.42
2018-01-02T15:16:56.644Z,99684.80
2018-01-02T15:19:26.638Z,99687.84
2018-01-02T15:21:55.866Z,99685.44
2018-01-02T15:24:25.834Z,99693.20
2018-01-02T15:26:55.113Z,99698.79
2018-01-02T15:29:24.322Z,99696.01
2018-01-02T15:31:53.713Z,99700.09
2018-01-02T15:34:22.924Z,99692.47
2018-01-02T15:36:52.139Z,99695.59
2018-01-02T15:39:21.353Z,99692.10
2018-01-02T15:41:50.558Z,99697.73
2018-01-02T15:44:19.797Z,99696.98
2018-01-02T15:46:49.009Z,99702.42
2018-01-02T15:49:18.211Z,99704.69
2018-01-02T15:51:47.443Z,99704.33
2018-01-02T15:54:17.446Z,99683.54
2018-01-02T15:56:48.234Z,99688.91
2018-01-02T15:59:17.475Z,99691.45
2018-01-02T16:01:46.757Z,99704.61
2018-01-02T16:04:16.049Z,99715.16
2018-01-02T16:06:45.249Z,99718.43
2018-01-02T16:09:14.617Z,99705.77
2018-01-02T16:11:44.663Z,99700.09
2018-01-02T16:14:13.945Z,99691.08
2018-01-02T16:16:44.455Z,99688.94
2018-01-02T16:19:14.431Z,99680.59
2018-01-02T16:21:43.663Z,99682.66
2018-01-02T16:24:13.650Z,99670.88
2018-01-02T16:26:42.882Z,99666.19
2018-01-02T16:29:12.856Z,99665.47
2018-01-02T16:31:42.272Z,99656.06
2018-01-02T16:34:11.498Z,99660.23
2018-01-02T16:36:40.851Z,99654.36
2018-01-02T16:39:10.088Z,99651.66
2018-01-02T16:41:40.091Z,99655.23
2018-01-02T16:44:09.308Z,99647.06
2018-01-02T16:46:38.558Z,99639.75
2018-01-02T16:49:07.848Z,99639.31
2018-01-02T16:51:37.072Z,99633.30
2018-01-02T16:54:06.483Z,99630.52
2018-01-02T16:56:35.693Z,99617.94
2018-01-02T16:59:04.912Z,99600.41
2018-01-02T17:01:34.158Z,99593.50
2018-01-02T17:04:03.419Z,99585.13
2018-01-02T17:06:32.650Z,99585.89
2018-01-02T17:09:02.012Z,99590.41
2018-01-02T17:11:31.248Z,99587.98
2018-01-02T17:14:01.478Z,99575.38
2018-01-02T17:16:30.693Z,99565.54
2018-01-02T17:18:59.920Z,99578.80
2018-01-02T17:21:29.145Z,99572.36
2018-01-02T17:23:58.471Z,99557.48
2018-01-02T17:26:27.820Z,99555.31
2018-01-02T17:28:57.780Z,99545.34
2018-01-02T17:31:26.994Z,99538.13
2018-01-02T17:33:56.203Z,99536.03
2018-01-02T17:36:25.424Z,99541.45
2018-01-02T17:38:54.619Z,99541.22
2018-01-02T17:41:24.648Z,99532.33
2018-01-02T17:43:53.861Z,99525.03
2018-01-02T17:46:23.105Z,99525.50
2018-01-02T17:48:52.300Z,99518.52
2018-01-02T17:51:21.578Z,99510.66
2018-01-02T17:53:50.879Z,99512.84
2018-01-02T17:56:20.321Z,99504.32
2018-01-02T17:58:49.549Z,99503.88
2018-01-02T18:01:18.760Z,99500.19
2018-01-02T18:03:47.957Z,99495.22
2018-01-02T18:06:17.158Z,99495.22
2018-01-02T18:08:46.379Z,99491.55
2018-01-02T18:11:15.573Z,99489.48
2018-01-02T18:13:44.842Z,99491.17
2018-01-02T18:16:14.759Z,99490.37
2018-01-02T18:18:44.049Z,99493.08
2018-01-02T18:21:13.281Z,99475.77
2018-01-02T18:23:42.515Z,99475.14
2018-01-02T18:26:12.520Z,99467.68
2018-01-02T18:28:41.787Z,99455.94
2018-01-02T18:31:11.086Z,99456.25
2018-01-02T18:33:40.618Z,99448.66
2018-01-02T18:36:11.373Z,99436.34
2018-01-02T18:38:41.388Z,99432.80
2018-01-02T18:41:10.693Z,99428.11
2018-01-02T18:43:40.817Z,99419.80
2018-01-02T18:46:10.089Z,99411.06
2018-01-02T18:48:40.264Z,99412.34
2018-01-02T18:51:09.661Z,99407.17
2018-01-02T18:53:39.642Z,99400.56
2018-01-02T18:56:09.368Z,99394.38
2018-01-02T18:58:39.102Z,99381.91
2018-01-02T19:01:08.785Z,99385.27
2018-01-02T19:03:38.301Z,99377.97
2018-01-02T19:06:08.222Z,99377.88
2018-01-02T19:08:37.874Z,99380.65
2018-01-02T19:11:07.907Z,99371.44
2018-01-02T19:13:38.163Z,99365.81
2018-01-02T19:16:07.894Z,99360.49
2018-01-02T19:18:38.365Z,99360.97
2018-01-02T19:21:08.433Z,99361.28
2018-01-02T19:23:37.951Z,99350.88
2018-01-02T19:26:07.357Z,99345.56
2018-01-02T19:28:36.977Z,99345.66
2018-01-02T19:31:06.406Z,99342.30
2018-01-02T19:33:36.558Z,99340.72
2018-01-02T19:36:06.126Z,99334.28
2018-01-02T19:38:36.024Z,99327.63
2018-01-02T19:41:05.290Z,99319.53
2018-01-02T19:43:34.958Z,99310.55
2018-01-02T19:46:04.357Z,99298.95
2018-01-02T19:48:34.144Z,99286.81
2018-01-02T19:51:04.415Z,99279.80
2018-01-02T19:53:34.088Z,99272.34
2018-01-02T19:56:04.378Z,99266.97
2018-01-02T19:58:34.640Z,99258.17
2018-01-02T20:01:04.895Z,99246.48
2018-01-02T20:03:34.420Z,99233.22
2018-01-02T20:06:03.939Z,99222.28
2018-01-02T20:08:34.198Z,99214.34
2018-01-02T20:11:04.434Z,99204.92
2018-01-02T20:13:34.046Z,99191.73
2018-01-02T20:16:03.759Z,99181.98
2018-01-02T20:18:39.098Z,99173.49
2018-01-02T20:21:09.770Z,99171.91
2018-01-02T20:23:39.483Z,99158.97
2018-01-02T20:26:09.784Z,99148.11
2018-01-02T20:28:39.480Z,99139.53
2018-01-02T20:31:09.921Z,99129.45
2018-01-02T20:33:41.247Z,99123.27
2018-01-02T20:36:11.068Z,99110.50
2018-01-02T20:38:40.999Z,99097.73
2018-01-02T20:41:11.345Z,99089.08
2018-01-02T20:43:41.133Z,99093.30
2018-01-02T20:46:10.920Z,99074.58
2018-01-02T20:48:40.649Z,99072.50
2018-01-02T20:51:10.994Z,99052.56
2018-01-02T20:53:41.569Z,99032.66
2018-01-02T20:56:11.467Z,99004.11
2018-01-02T20:58:42.220Z,99017.59
2018-01-02T21:01:12.357Z,99005.62
2018-01-02T21:03:42.150Z,98983.94
2018-01-02T21:06:11.985Z,98987.34
2018-01-02T21:08:41.659Z,98984.72
2018-01-02T21:11:11.245Z,98987.94
2018-01-02T21:13:40.776Z,98980.27
2018-01-02T21:16:10.327Z,98957.91
2018-01-02T21:18:39.966Z,98967.97
2018-01-02T21:21:09.908Z,98977.17
2018-01-02T21:23:39.388Z,98965.26
2018-01-02T21:26:09.101Z,98948.23
2018-01-02T21:28:39.333Z,98972.51
2018-01-02T21:31:09.609Z,98948.11
2018-01-02T21:33:39.163Z,98951.43
2018-01-02T21:36:08.839Z,98940.89
2018-01-02T21:38:38.340Z,98961.20
2018-01-02T21:41:07.929Z,98937.54
2018-01-02T21:43:37.369Z,98914.29
2018-01-02T21:46:06.848Z,98928.47
2018-01-02T21:48:36.502Z,98919.08
2018-01-02T21:51:06.467Z,98910.81
2018-01-02T21:53:36.926Z,98902.03
2018-01-02T21:56:06.569Z,98907.25
2018-01-02T21:58:37.097Z,98891.25
2018-01-02T22:01:07.030Z,98881.13
2018-01-02T22:03:37.263Z,98874.35
2018-01-02T22:06:07.269Z,98876.77
2018-01-02T22:08:36.766Z,98860.23
2018-01-02T22:11:06.516Z,98855.93
2018-01-02T22:13:36.267Z,98845.23
2018-01-02T22:16:05.977Z,98835.14
2018-01-02T22:18:35.636Z,98832.59
2018-01-02T22:21:05.055Z,98821.37
2018-01-02T22:23:34.929Z,98818.41
2018-01-02T22:26:04.379Z,98803.05
2018-01-02T22:28:34.771Z,98793.12
2018-01-02T22:31:04.082Z,98777.22
2018-01-02T22:33:34.142Z,98777.56
2018-01-02T22:36:03.570Z,98773.17
2018-01-02T22:38:32.769Z,98765.90
2018-01-02T22:41:01.951Z,98753.57
2018-01-02T22:43:31.169Z,98745.69
2018-01-02T22:46:00.459Z,98746.16
